Time;durP1;ratioP1;P1;durP2;ratioP2;P2;SDS_P1;SDS_P2;PMS_P1;PMS_P2;Temp;Humidity;BMP_temperature;BMP_pressure;BME280_temperature;BME280_humidity;BME280_pressure;Samples;Min_cycle;Max_cycle;Signal;HPM_P1;HPM_P2
2024/01/08 00:01:50;;;;;;;9.37;6.03;;;;;;;;;;5108418;28;20026;-77
2024/01/08 00:04:15;;;;;;;8.85;6.13;;;;;;;;;;5108959;28;20335;-77
2024/01/08 00:06:41;;;;;;;8.23;5.43;;;;;;;;;;5108048;28;20012;-76
2024/01/08 00:09:06;;;;;;;9.98;6.38;;;;;;;;;;5114385;28;20042;-77
2024/01/08 00:11:31;;;;;;;8.90;5.82;;;;;;;;;;5102920;28;20020;-77
2024/01/08 00:13:56;;;;;;;8.37;5.43;;;;;;;;;;5106349;28;20122;-76
2024/01/08 00:16:22;;;;;;;8.20;6.35;;;;;;;;;;5104941;28;20278;-76
2024/01/08 00:18:47;;;;;;;10.68;6.85;;;;;;;;;;5104060;28;20459;-77
2024/01/08 00:21:12;;;;;;;10.23;6.40;;;;;;;;;;5107207;28;20042;-77
2024/01/08 00:23:37;;;;;;;10.45;7.05;;;;;;;;;;5102779;28;20470;-76
2024/01/08 00:26:02;;;;;;;11.33;7.83;;;;;;;;;;5103114;28;20019;-77
2024/01/08 00:28:28;;;;;;;13.63;8.50;;;;;;;;;;5102493;28;20360;-77
2024/01/08 00:30:53;;;;;;;13.90;8.85;;;;;;;;;;5111581;28;20015;-76
2024/01/08 00:33:18;;;;;;;17.85;10.05;;;;;;;;;;5106213;28;20065;-76
2024/01/08 00:35:43;;;;;;;14.68;8.77;;;;;;;;;;5108107;28;20035;-76
2024/01/08 00:38:09;;;;;;;18.48;11.02;;;;;;;;;;5107391;28;20019;-76
2024/01/08 00:40:34;;;;;;;20.27;11.50;;;;;;;;;;5106603;28;20028;-77
2024/01/08 00:42:59;;;;;;;18.23;11.00;;;;;;;;;;5104831;28;20436;-76
2024/01/08 00:45:25;;;;;;;18.38;10.60;;;;;;;;;;5104817;28;20368;-76
2024/01/08 00:47:50;;;;;;;18.13;11.30;;;;;;;;;;5105144;28;20055;-76
2024/01/08 00:50:16;;;;;;;20.90;11.75;;;;;;;;;;5106041;28;20020;-76
2024/01/08 00:52:41;;;;;;;18.45;10.82;;;;;;;;;;5104936;28;20015;-77
2024/01/08 00:55:07;;;;;;;19.23;10.50;;;;;;;;;;5103810;28;20525;-77
2024/01/08 00:57:32;;;;;;;14.77;8.68;;;;;;;;;;5105269;27;20019;-76
2024/01/08 00:59:57;;;;;;;20.67;11.30;;;;;;;;;;5106567;28;20043;-76
2024/01/08 01:02:23;;;;;;;20.47;11.93;;;;;;;;;;5111805;28;20047;-77
2024/01/08 01:04:48;;;;;;;25.05;12.85;;;;;;;;;;5107269;28;20273;-76
2024/01/08 01:07:13;;;;;;;25.80;15.03;;;;;;;;;;5107999;28;20023;-76
2024/01/08 01:09:38;;;;;;;29.43;14.87;;;;;;;;;;5102585;28;20412;-77
2024/01/08 01:12:04;;;;;;;27.30;15.75;;;;;;;;;;5106241;28;20265;-76
2024/01/08 01:14:30;;;;;;;28.25;16.00;;;;;;;;;;5102660;28;20035;-76
2024/01/08 01:16:56;;;;;;;28.42;16.95;;;;;;;;;;5106423;28;20012;-77
2024/01/08 01:19:21;;;;;;;29.87;18.10;;;;;;;;;;5107616;28;20110;-76
2024/01/08 01:21:46;;;;;;;29.33;16.87;;;;;;;;;;5102666;28;20266;-76
2024/01/08 01:24:11;;;;;;;26.88;15.45;;;;;;;;;;5106053;28;20265;-76
2024/01/08 01:26:36;;;;;;;29.50;16.53;;;;;;;;;;5101466;28;20471;-76
2024/01/08 01:29:02;;;;;;;32.90;16.92;;;;;;;;;;5110246;28;20300;-76
2024/01/08 01:31:27;;;;;;;27.33;15.32;;;;;;;;;;5106721;28;20020;-76
2024/01/08 01:33:52;;;;;;;27.20;15.73;;;;;;;;;;5103694;28;20119;-77
2024/01/08 01:36:17;;;;;;;24.57;15.30;;;;;;;;;;5107944;28;20478;-76
2024/01/08 01:38:42;;;;;;;25.05;13.90;;;;;;;;;;5107755;28;20264;-76
2024/01/08 01:41:08;;;;;;;19.23;11.77;;;;;;;;;;5103482;28;20028;-76
2024/01/08 01:43:33;;;;;;;17.07;10.87;;;;;;;;;;5108107;28;20569;-76
2024/01/08 01:46:01;;;;;;;19.45;12.18;;;;;;;;;;5103777;28;20303;-76
2024/01/08 01:48:27;;;;;;;17.38;11.35;;;;;;;;;;5103830;28;20050;-76
2024/01/08 01:50:53;;;;;;;17.50;10.77;;;;;;;;;;5104580;28;20047;-76
2024/01/08 01:53:18;;;;;;;16.77;9.95;;;;;;;;;;5102529;28;20052;-76
2024/01/08 01:55:44;;;;;;;15.25;9.68;;;;;;;;;;5108874;28;20075;-76
2024/01/08 01:58:11;;;;;;;15.90;9.88;;;;;;;;;;5105582;28;20052;-76
2024/01/08 02:00:36;;;;;;;15.27;9.32;;;;;;;;;;5102639;28;20031;-77
2024/01/08 02:03:01;;;;;;;15.48;8.60;;;;;;;;;;5110314;28;20015;-76
2024/01/08 02:05:27;;;;;;;14.82;8.90;;;;;;;;;;5103682;28;20016;-76
2024/01/08 02:07:52;;;;;;;13.05;8.65;;;;;;;;;;5109304;28;20373;-76
2024/01/08 02:10:18;;;;;;;14.32;8.93;;;;;;;;;;5103590;28;20487;-76
2024/01/08 02:12:43;;;;;;;14.05;8.18;;;;;;;;;;5108531;28;20467;-76
2024/01/08 02:15:08;;;;;;;12.32;8.75;;;;;;;;;;5104136;28;20036;-76
2024/01/08 02:17:33;;;;;;;13.32;7.47;;;;;;;;;;5107242;28;20020;-76
2024/01/08 02:19:59;;;;;;;13.90;8.80;;;;;;;;;;5105331;28;20019;-76
2024/01/08 02:22:24;;;;;;;14.13;9.15;;;;;;;;;;5100285;28;20783;-76
2024/01/08 02:24:49;;;;;;;13.97;8.63;;;;;;;;;;5107054;28;20034;-76
2024/01/08 02:27:14;;;;;;;13.65;8.48;;;;;;;;;;5102814;28;20258;-76
2024/01/08 02:29:40;;;;;;;12.23;8.45;;;;;;;;;;5108518;28;20027;-76
2024/01/08 02:32:07;;;;;;;10.25;6.97;;;;;;;;;;5101881;28;20015;-76
2024/01/08 02:34:32;;;;;;;10.77;7.97;;;;;;;;;;5105437;28;20479;-76
2024/01/08 02:36:57;;;;;;;9.00;6.88;;;;;;;;;;5102945;28;20040;-77
2024/01/08 02:39:22;;;;;;;10.07;6.33;;;;;;;;;;5102993;28;20067;-77
2024/01/08 02:41:47;;;;;;;11.37;6.40;;;;;;;;;;5107217;28;20265;-77
2024/01/08 02:44:13;;;;;;;7.87;6.20;;;;;;;;;;5108352;28;20331;-76
2024/01/08 02:46:38;;;;;;;8.85;6.40;;;;;;;;;;5104885;28;20277;-77
2024/01/08 02:49:03;;;;;;;8.37;6.27;;;;;;;;;;5108497;28;20020;-76
2024/01/08 02:51:28;;;;;;;11.53;6.17;;;;;;;;;;5107943;28;20288;-77
2024/01/08 02:53:53;;;;;;;7.57;5.82;;;;;;;;;;5102543;28;20645;-77
2024/01/08 02:56:21;;;;;;;7.87;5.70;;;;;;;;;;5102085;28;20074;-77
2024/01/08 02:58:47;;;;;;;8.15;5.55;;;;;;;;;;5104090;28;20300;-76
2024/01/08 03:01:12;;;;;;;10.45;6.18;;;;;;;;;;5106235;28;20059;-77
2024/01/08 03:03:38;;;;;;;8.27;5.63;;;;;;;;;;5109786;28;20093;-77
2024/01/08 03:06:03;;;;;;;10.52;5.60;;;;;;;;;;5105050;28;20285;-76
2024/01/08 03:08:28;;;;;;;8.07;5.25;;;;;;;;;;5102463;28;20528;-76
2024/01/08 03:10:53;;;;;;;9.07;5.63;;;;;;;;;;5106998;28;20028;-76
2024/01/08 03:13:18;;;;;;;9.40;5.30;;;;;;;;;;5101910;28;20262;-77
2024/01/08 03:15:44;;;;;;;8.32;5.20;;;;;;;;;;5109830;28;20305;-77
2024/01/08 03:18:09;;;;;;;9.63;5.63;;;;;;;;;;5107667;28;20091;-76
2024/01/08 03:20:34;;;;;;;11.48;6.32;;;;;;;;;;5115444;28;20411;-76
2024/01/08 03:22:59;;;;;;;8.63;5.40;;;;;;;;;;5108569;28;20037;-76
2024/01/08 03:25:24;;;;;;;10.70;5.82;;;;;;;;;;5103752;28;20595;-76
2024/01/08 03:27:49;;;;;;;8.70;5.50;;;;;;;;;;5110426;28;20015;-76
2024/01/08 03:30:15;;;;;;;11.63;6.17;;;;;;;;;;5103179;28;20038;-76
2024/01/08 03:32:40;;;;;;;13.25;5.78;;;;;;;;;;5110235;28;20273;-76
2024/01/08 03:35:05;;;;;;;7.70;4.82;;;;;;;;;;5106737;28;20032;-76
2024/01/08 03:37:30;;;;;;;9.30;6.93;;;;;;;;;;5104571;28;20020;-76
2024/01/08 03:39:57;;;;;;;9.95;5.93;;;;;;;;;;5110829;28;20023;-76
2024/01/08 03:42:22;;;;;;;9.45;5.57;;;;;;;;;;5110867;28;20487;-77
2024/01/08 03:44:47;;;;;;;9.33;5.83;;;;;;;;;;5108700;28;20063;-76
2024/01/08 03:47:13;;;;;;;8.60;5.77;;;;;;;;;;5107324;28;20257;-76
2024/01/08 03:49:38;;;;;;;9.02;5.85;;;;;;;;;;5105794;28;20342;-76
2024/01/08 03:52:03;;;;;;;8.73;5.53;;;;;;;;;;5105455;28;20382;-76
2024/01/08 03:54:28;;;;;;;9.57;6.00;;;;;;;;;;5102542;28;20298;-76
2024/01/08 03:56:53;;;;;;;10.13;5.60;;;;;;;;;;5106559;28;20028;-76
2024/01/08 03:59:18;;;;;;;9.20;5.70;;;;;;;;;;5104106;28;20748;-76
2024/01/08 04:01:45;;;;;;;9.82;6.38;;;;;;;;;;5108483;28;20261;-76
2024/01/08 04:04:11;;;;;;;9.57;6.10;;;;;;;;;;5113810;28;20550;-76
2024/01/08 04:06:36;;;;;;;11.25;6.13;;;;;;;;;;5102324;28;20016;-76
2024/01/08 04:09:01;;;;;;;8.50;5.30;;;;;;;;;;5110782;28;20024;-76
2024/01/08 04:11:27;;;;;;;10.82;6.63;;;;;;;;;;5106269;28;20258;-76
2024/01/08 04:13:52;;;;;;;9.77;5.77;;;;;;;;;;5110227;28;20026;-76
2024/01/08 04:16:17;;;;;;;8.70;5.95;;;;;;;;;;5108766;28;20278;-76
2024/01/08 04:18:42;;;;;;;8.83;6.03;;;;;;;;;;5110115;28;20015;-76
2024/01/08 04:21:07;;;;;;;10.47;5.93;;;;;;;;;;5108760;28;20268;-76
2024/01/08 04:23:32;;;;;;;11.50;5.90;;;;;;;;;;5107994;28;20675;-76
2024/01/08 04:25:58;;;;;;;9.87;5.90;;;;;;;;;;5107634;28;20332;-76
2024/01/08 04:28:23;;;;;;;9.48;5.75;;;;;;;;;;5108061;28;20276;-76
2024/01/08 04:30:48;;;;;;;12.15;6.53;;;;;;;;;;5111646;28;20015;-76
2024/01/08 04:33:13;;;;;;;9.87;6.30;;;;;;;;;;5112526;28;20054;-76
2024/01/08 04:35:38;;;;;;;11.13;6.50;;;;;;;;;;5106105;28;20773;-76
2024/01/08 04:38:03;;;;;;;9.67;6.50;;;;;;;;;;5109509;28;20270;-76
2024/01/08 04:40:29;;;;;;;10.48;6.32;;;;;;;;;;5105359;28;20745;-76
2024/01/08 04:42:54;;;;;;;11.03;5.87;;;;;;;;;;5105482;28;20436;-76
2024/01/08 04:45:19;;;;;;;8.33;5.57;;;;;;;;;;5111128;28;20359;-76
2024/01/08 04:47:44;;;;;;;10.17;6.00;;;;;;;;;;5105532;28;20822;-76
2024/01/08 04:50:09;;;;;;;8.83;5.60;;;;;;;;;;5109326;28;20269;-76
2024/01/08 04:52:34;;;;;;;8.38;5.82;;;;;;;;;;5105473;28;20834;-76
2024/01/08 04:55:00;;;;;;;9.93;5.93;;;;;;;;;;5104524;28;20407;-76
2024/01/08 04:57:25;;;;;;;9.05;5.93;;;;;;;;;;5112270;28;20266;-76
2024/01/08 04:59:50;;;;;;;11.00;5.68;;;;;;;;;;5103483;28;20016;-76
2024/01/08 05:02:15;;;;;;;9.90;5.82;;;;;;;;;;5109707;28;20019;-76
2024/01/08 05:04:41;;;;;;;11.00;5.90;;;;;;;;;;5104264;28;20024;-76
2024/01/08 05:07:07;;;;;;;9.80;6.07;;;;;;;;;;5110310;28;20327;-76
2024/01/08 05:09:32;;;;;;;9.00;5.53;;;;;;;;;;5103840;28;20057;-76
2024/01/08 05:11:57;;;;;;;10.50;6.07;;;;;;;;;;5108344;28;20016;-76
2024/01/08 05:14:23;;;;;;;8.73;5.13;;;;;;;;;;5106597;28;20042;-76
2024/01/08 05:16:51;;;;;;;9.63;5.90;;;;;;;;;;5106193;28;20620;-76
2024/01/08 05:19:16;;;;;;;9.77;6.07;;;;;;;;;;5107743;28;20068;-76
2024/01/08 05:21:42;;;;;;;8.55;5.65;;;;;;;;;;5108625;28;20016;-76
2024/01/08 05:24:07;;;;;;;9.65;5.47;;;;;;;;;;5104979;28;20042;-76
2024/01/08 05:26:32;;;;;;;8.88;5.50;;;;;;;;;;5106891;28;20042;-76
2024/01/08 05:28:57;;;;;;;9.90;5.78;;;;;;;;;;5109499;28;20367;-76
2024/01/08 05:31:23;;;;;;;8.93;5.70;;;;;;;;;;5106814;28;20031;-76
2024/01/08 05:33:49;;;;;;;13.10;5.95;;;;;;;;;;5108129;28;20676;-76
2024/01/08 05:36:14;;;;;;;10.70;6.32;;;;;;;;;;5105604;28;20024;-76
2024/01/08 05:38:39;;;;;;;14.48;7.22;;;;;;;;;;5111563;28;20555;-76
2024/01/08 05:41:04;;;;;;;9.57;6.00;;;;;;;;;;5105378;28;20026;-76
2024/01/08 05:43:29;;;;;;;10.60;6.50;;;;;;;;;;5107824;28;20261;-76
2024/01/08 05:45:55;;;;;;;9.48;6.45;;;;;;;;;;5107503;28;20384;-76
2024/01/08 05:48:20;;;;;;;10.75;6.45;;;;;;;;;;5111434;28;20375;-76
2024/01/08 05:50:46;;;;;;;9.27;5.85;;;;;;;;;;5103713;28;20046;-76
2024/01/08 05:53:11;;;;;;;10.02;6.43;;;;;;;;;;5103024;28;20494;-76
2024/01/08 05:55:37;;;;;;;10.70;6.53;;;;;;;;;;5103308;28;20051;-76
2024/01/08 05:58:02;;;;;;;12.20;7.03;;;;;;;;;;5102741;28;20016;-76
2024/01/08 06:00:27;;;;;;;10.10;6.47;;;;;;;;;;5104513;28;20015;-76
2024/01/08 06:02:52;;;;;;;10.03;6.20;;;;;;;;;;5103453;28;20100;-76
2024/01/08 06:05:17;;;;;;;10.27;6.10;;;;;;;;;;5105471;28;20742;-76
2024/01/08 06:07:43;;;;;;;13.32;7.20;;;;;;;;;;5106386;28;20301;-76
2024/01/08 06:10:08;;;;;;;10.23;6.63;;;;;;;;;;5100728;28;20058;-76
2024/01/08 06:12:33;;;;;;;11.60;7.25;;;;;;;;;;5108120;28;20080;-77
2024/01/08 06:14:59;;;;;;;14.43;8.07;;;;;;;;;;5100557;28;20039;-76
2024/01/08 06:17:24;;;;;;;12.15;7.20;;;;;;;;;;5108309;28;20262;-76
2024/01/08 06:19:49;;;;;;;11.93;7.40;;;;;;;;;;5100470;28;20020;-76
2024/01/08 06:22:14;;;;;;;12.73;7.57;;;;;;;;;;5108838;28;20258;-76
2024/01/08 06:24:40;;;;;;;12.40;7.35;;;;;;;;;;5107443;28;20262;-76
2024/01/08 06:27:06;;;;;;;13.70;7.80;;;;;;;;;;5105561;28;20050;-76
2024/01/08 06:29:31;;;;;;;14.60;8.07;;;;;;;;;;5108973;28;20474;-76
2024/01/08 06:31:56;;;;;;;13.48;8.18;;;;;;;;;;5101613;28;20046;-76
2024/01/08 06:34:21;;;;;;;13.73;7.50;;;;;;;;;;5104846;28;20363;-76
2024/01/08 06:36:46;;;;;;;11.40;7.00;;;;;;;;;;5110259;28;20081;-76
2024/01/08 06:39:12;;;;;;;12.03;7.33;;;;;;;;;;5102857;28;20258;-76
2024/01/08 06:41:37;;;;;;;12.45;7.85;;;;;;;;;;5107168;28;20303;-76
2024/01/08 06:44:02;;;;;;;12.48;8.70;;;;;;;;;;5107762;28;20430;-76
2024/01/08 06:46:28;;;;;;;12.98;7.95;;;;;;;;;;5105012;28;20107;-76
2024/01/08 06:48:53;;;;;;;11.57;7.10;;;;;;;;;;5107185;28;20140;-76
2024/01/08 06:51:19;;;;;;;13.03;7.33;;;;;;;;;;5108836;28;20698;-76
2024/01/08 06:53:45;;;;;;;13.25;8.50;;;;;;;;;;5102275;28;20304;-76
2024/01/08 06:56:10;;;;;;;12.68;7.25;;;;;;;;;;5104079;28;20072;-76
2024/01/08 06:58:35;;;;;;;12.50;8.40;;;;;;;;;;5105695;28;20050;-76
2024/01/08 07:01:01;;;;;;;14.87;7.77;;;;;;;;;;5107283;28;20051;-76
2024/01/08 07:03:26;;;;;;;13.40;8.88;;;;;;;;;;5107948;28;20257;-76
2024/01/08 07:05:51;;;;;;;17.07;8.13;;;;;;;;;;5105533;28;20107;-76
2024/01/08 07:08:17;;;;;;;13.95;7.88;;;;;;;;;;5104871;28;20344;-76
2024/01/08 07:10:42;;;;;;;13.95;9.23;;;;;;;;;;5106669;28;20023;-76
2024/01/08 07:13:07;;;;;;;14.97;8.00;;;;;;;;;;5107183;28;20020;-76
2024/01/08 07:15:37;;;;;;;12.73;8.50;;;;;;;;;;5109894;28;20301;-76
2024/01/08 07:18:02;;;;;;;14.15;8.15;;;;;;;;;;5108672;28;20257;-76
2024/01/08 07:20:27;;;;;;;13.32;8.73;;;;;;;;;;5103365;28;20498;-76
2024/01/08 07:22:52;;;;;;;17.17;8.73;;;;;;;;;;5107356;28;20019;-76
2024/01/08 07:25:17;;;;;;;15.90;9.40;;;;;;;;;;5101241;28;20262;-76
2024/01/08 07:27:42;;;;;;;16.20;8.83;;;;;;;;;;5110628;28;20261;-76
2024/01/08 07:30:09;;;;;;;14.05;8.57;;;;;;;;;;5106353;28;20795;-76
2024/01/08 07:32:34;;;;;;;14.88;9.13;;;;;;;;;;5111166;28;20099;-76
2024/01/08 07:35:01;;;;;;;14.30;9.73;;;;;;;;;;5100598;28;20108;-76
2024/01/08 07:37:26;;;;;;;14.95;9.40;;;;;;;;;;5109338;28;20098;-76
2024/01/08 07:39:51;;;;;;;13.77;8.43;;;;;;;;;;5103983;28;20111;-76
2024/01/08 07:42:16;;;;;;;16.60;8.60;;;;;;;;;;5105728;28;20269;-76
2024/01/08 07:44:41;;;;;;;13.63;9.00;;;;;;;;;;5108115;28;20300;-76
2024/01/08 07:47:06;;;;;;;16.42;9.23;;;;;;;;;;5108614;28;20274;-76
2024/01/08 07:49:32;;;;;;;13.68;8.60;;;;;;;;;;5103227;28;20073;-78
2024/01/08 07:51:57;;;;;;;14.00;9.00;;;;;;;;;;5107225;28;20027;-78
2024/01/08 07:54:22;;;;;;;14.10;9.20;;;;;;;;;;5101086;28;20832;-76
2024/01/08 07:56:48;;;;;;;14.13;9.17;;;;;;;;;;5106244;28;20471;-76
2024/01/08 07:59:13;;;;;;;15.60;8.80;;;;;;;;;;5104599;28;20262;-76
2024/01/08 08:01:38;;;;;;;14.13;8.68;;;;;;;;;;5110496;28;20273;-76
2024/01/08 08:04:03;;;;;;;19.33;10.30;;;;;;;;;;5110623;28;20137;-76
2024/01/08 08:06:30;;;;;;;17.52;9.98;;;;;;;;;;5107797;28;20749;-76
2024/01/08 08:08:55;;;;;;;15.93;8.88;;;;;;;;;;5111350;27;20027;-76
2024/01/08 08:11:21;;;;;;;18.00;10.17;;;;;;;;;;5104358;28;20051;-76
2024/01/08 08:13:46;;;;;;;16.63;9.38;;;;;;;;;;5109525;28;20286;-76
2024/01/08 08:16:11;;;;;;;15.65;9.00;;;;;;;;;;5111693;28;20553;-76
2024/01/08 08:18:36;;;;;;;14.27;9.27;;;;;;;;;;5112279;28;20492;-76
2024/01/08 08:21:02;;;;;;;15.10;8.98;;;;;;;;;;5108780;28;20293;-76
2024/01/08 08:23:27;;;;;;;15.80;9.05;;;;;;;;;;5105073;28;20024;-76
2024/01/08 08:25:52;;;;;;;15.80;8.43;;;;;;;;;;5108906;28;20020;-76
2024/01/08 08:28:18;;;;;;;15.80;9.23;;;;;;;;;;5111372;28;20266;-76
2024/01/08 08:30:43;;;;;;;12.75;8.07;;;;;;;;;;5104892;28;20031;-76
2024/01/08 08:33:08;;;;;;;16.75;9.00;;;;;;;;;;5114026;28;20016;-76
2024/01/08 08:35:36;;;;;;;12.40;8.57;;;;;;;;;;5102266;28;20039;-75
2024/01/08 08:38:01;;;;;;;12.10;8.77;;;;;;;;;;5110293;28;20831;-76
2024/01/08 08:40:26;;;;;;;11.88;7.70;;;;;;;;;;5106189;28;20062;-76
2024/01/08 08:42:51;;;;;;;10.23;6.93;;;;;;;;;;5103882;28;20468;-76
2024/01/08 08:45:20;;;;;;;12.10;7.18;;;;;;;;;;5104804;28;20035;-76
2024/01/08 08:47:45;;;;;;;10.93;7.35;;;;;;;;;;5107161;28;20069;-75
2024/01/08 08:50:12;;;;;;;12.18;7.10;;;;;;;;;;5106071;28;20094;-75
2024/01/08 08:52:37;;;;;;;11.00;7.20;;;;;;;;;;5109503;28;20028;-76
2024/01/08 08:55:02;;;;;;;11.83;6.97;;;;;;;;;;5105034;28;20514;-75
2024/01/08 08:57:28;;;;;;;12.82;7.53;;;;;;;;;;5110108;28;20275;-76
2024/01/08 08:59:53;;;;;;;12.90;7.63;;;;;;;;;;5104226;28;20386;-76
2024/01/08 09:02:19;;;;;;;9.57;7.43;;;;;;;;;;5112445;28;20253;-76
2024/01/08 09:04:44;;;;;;;13.73;7.60;;;;;;;;;;5105217;28;20024;-76
2024/01/08 09:07:09;;;;;;;11.67;7.80;;;;;;;;;;5110399;28;20356;-75
2024/01/08 09:09:34;;;;;;;11.95;7.63;;;;;;;;;;5109146;28;20270;-75
2024/01/08 09:11:59;;;;;;;12.43;7.87;;;;;;;;;;5113371;28;20114;-75
2024/01/08 09:14:24;;;;;;;12.50;7.37;;;;;;;;;;5101723;28;20289;-75
2024/01/08 09:16:50;;;;;;;11.20;7.83;;;;;;;;;;5110898;28;20381;-75
2024/01/08 09:19:15;;;;;;;14.07;8.33;;;;;;;;;;5111329;28;20261;-76
2024/01/08 09:21:43;;;;;;;11.68;7.32;;;;;;;;;;5105959;28;20269;-75
2024/01/08 09:24:08;;;;;;;14.32;7.28;;;;;;;;;;5110159;27;20012;-75
2024/01/08 09:26:33;;;;;;;10.53;7.27;;;;;;;;;;5104001;28;20080;-75
2024/01/08 09:28:59;;;;;;;13.25;7.55;;;;;;;;;;5104178;28;20736;-76
2024/01/08 09:31:24;;;;;;;11.13;7.80;;;;;;;;;;5110033;28;20019;-75
2024/01/08 09:33:49;;;;;;;13.00;7.50;;;;;;;;;;5107370;28;20411;-75
2024/01/08 09:36:14;;;;;;;10.68;7.30;;;;;;;;;;5111052;28;19968;-76
2024/01/08 09:38:40;;;;;;;10.98;6.82;;;;;;;;;;5108249;28;20031;-75
2024/01/08 09:41:05;;;;;;;11.65;7.70;;;;;;;;;;5110545;28;20139;-75
2024/01/08 09:43:32;;;;;;;11.43;7.55;;;;;;;;;;5108704;28;20026;-75
2024/01/08 09:46:03;;;;;;;13.57;8.85;;;;;;;;;;5108962;28;20016;-75
2024/01/08 09:48:33;;;;;;;10.90;8.68;;;;;;;;;;5105003;28;20030;-75
2024/01/08 09:51:00;;;;;;;12.35;7.70;;;;;;;;;;5104629;28;20016;-75
2024/01/08 09:53:26;;;;;;;12.75;8.45;;;;;;;;;;5108666;28;20035;-75
2024/01/08 09:55:52;;;;;;;13.27;8.80;;;;;;;;;;5102327;27;20383;-75
2024/01/08 09:58:17;;;;;;;12.20;8.10;;;;;;;;;;5111487;28;20041;-74
2024/01/08 10:00:42;;;;;;;14.52;8.77;;;;;;;;;;5109798;28;20019;-74
2024/01/08 10:03:08;;;;;;;13.25;8.35;;;;;;;;;;5107208;28;20016;-74
2024/01/08 10:05:34;;;;;;;13.70;8.82;;;;;;;;;;5102971;28;20051;-73
2024/01/08 10:08:00;;;;;;;13.32;9.00;;;;;;;;;;5103385;28;20024;-73
2024/01/08 10:10:26;;;;;;;13.32;8.52;;;;;;;;;;5107934;28;20027;-74
2024/01/08 10:12:53;;;;;;;12.73;9.05;;;;;;;;;;5105822;28;20367;-73
2024/01/08 10:15:19;;;;;;;12.43;7.68;;;;;;;;;;5101702;28;20024;-73
2024/01/08 10:17:51;;;;;;;16.75;10.27;;;;;;;;;;5107009;28;20031;-73
2024/01/08 10:20:17;;;;;;;14.32;9.27;;;;;;;;;;5105017;28;20023;-74
2024/01/08 10:22:44;;;;;;;14.88;8.80;;;;;;;;;;5109499;28;20430;-74
2024/01/08 10:25:09;;;;;;;16.38;8.55;;;;;;;;;;5105444;28;20020;-74
2024/01/08 10:27:35;;;;;;;17.07;9.10;;;;;;;;;;5110999;28;20023;-74
2024/01/08 10:30:01;;;;;;;17.65;8.30;;;;;;;;;;5107600;28;20274;-74
2024/01/08 10:32:26;;;;;;;12.57;8.48;;;;;;;;;;5109547;28;20484;-74
2024/01/08 10:34:51;;;;;;;11.32;7.57;;;;;;;;;;5101870;28;20118;-74
2024/01/08 10:37:17;;;;;;;10.32;8.10;;;;;;;;;;5107292;28;20028;-74
2024/01/08 10:39:44;;;;;;;11.00;7.57;;;;;;;;;;5101047;28;20059;-74
2024/01/08 10:42:09;;;;;;;14.23;7.68;;;;;;;;;;5105794;28;20463;-74
2024/01/08 10:44:35;;;;;;;12.68;7.95;;;;;;;;;;5102657;28;20038;-73
2024/01/08 10:47:06;;;;;;;11.25;7.80;;;;;;;;;;5109968;28;20029;-73
2024/01/08 10:49:36;;;;;;;9.63;6.50;;;;;;;;;;5105908;28;20117;-74
2024/01/08 10:52:04;;;;;;;10.38;6.75;;;;;;;;;;5109578;28;20055;-74
2024/01/08 10:54:39;;;;;;;11.30;7.57;;;;;;;;;;5107054;28;20082;-74
2024/01/08 10:57:05;;;;;;;10.27;7.10;;;;;;;;;;5109288;28;20059;-74
2024/01/08 10:59:32;;;;;;;10.43;7.05;;;;;;;;;;5101952;28;20023;-74
2024/01/08 11:01:57;;;;;;;9.95;7.20;;;;;;;;;;5107559;28;20012;-74
2024/01/08 11:04:22;;;;;;;8.85;6.63;;;;;;;;;;5106689;28;20015;-74
2024/01/08 11:06:49;;;;;;;10.40;7.50;;;;;;;;;;5105554;28;20020;-74
2024/01/08 11:09:24;;;;;;;8.63;6.25;;;;;;;;;;5107571;28;20253;-74
2024/01/08 11:11:50;;;;;;;10.95;6.53;;;;;;;;;;5105752;28;20026;-75
2024/01/08 11:14:16;;;;;;;10.30;6.68;;;;;;;;;;5107123;28;20020;-74
2024/01/08 11:16:41;;;;;;;10.30;6.28;;;;;;;;;;5106304;28;20027;-74
2024/01/08 11:19:19;;;;;;;9.93;7.17;;;;;;;;;;5110583;28;20012;-75
2024/01/08 11:21:44;;;;;;;9.48;6.28;;;;;;;;;;5110407;28;20331;-74
2024/01/08 11:24:10;;;;;;;10.43;6.90;;;;;;;;;;5109241;28;20016;-73
2024/01/08 11:26:44;;;;;;;8.38;6.18;;;;;;;;;;5102571;28;20023;-72
2024/01/08 11:29:10;;;;;;;9.80;6.78;;;;;;;;;;5100978;28;20026;-73
2024/01/08 11:31:48;;;;;;;9.02;6.45;;;;;;;;;;5096354;28;20023;-74
2024/01/08 11:34:30;;;;;;;8.15;5.55;;;;;;;;;;5098033;28;20024;-74
2024/01/08 11:37:04;;;;;;;15.55;5.47;;;;;;;;;;5101263;28;20479;-74
2024/01/08 11:39:34;;;;;;;8.15;5.65;;;;;;;;;;5112828;28;20019;-74
2024/01/08 11:41:59;;;;;;;8.57;5.65;;;;;;;;;;5108156;28;20016;-75
2024/01/08 11:44:25;;;;;;;7.57;5.53;;;;;;;;;;5104716;28;20372;-75
2024/01/08 11:46:50;;;;;;;9.68;5.95;;;;;;;;;;5113219;28;20274;-75
2024/01/08 11:49:16;;;;;;;11.43;6.27;;;;;;;;;;5107581;28;20024;-75
2024/01/08 11:51:44;;;;;;;6.18;4.45;;;;;;;;;;5110510;28;20273;-75
2024/01/08 11:54:13;;;;;;;7.95;5.22;;;;;;;;;;5107874;28;20513;-75
2024/01/08 11:56:38;;;;;;;7.13;5.10;;;;;;;;;;5108978;28;20031;-75
2024/01/08 11:59:03;;;;;;;5.43;4.53;;;;;;;;;;5110348;28;20069;-75
2024/01/08 12:01:30;;;;;;;4.90;4.30;;;;;;;;;;5109852;28;20483;-75
2024/01/08 12:03:59;;;;;;;9.40;4.63;;;;;;;;;;5111294;28;20023;-75
2024/01/08 12:06:25;;;;;;;6.32;4.68;;;;;;;;;;5105066;28;20016;-75
2024/01/08 12:08:51;;;;;;;7.07;4.60;;;;;;;;;;5110956;28;20016;-75
2024/01/08 12:11:16;;;;;;;5.57;4.63;;;;;;;;;;5108184;28;20034;-75
2024/01/08 12:13:42;;;;;;;7.25;5.00;;;;;;;;;;5106277;28;20023;-75
2024/01/08 12:16:07;;;;;;;7.40;5.20;;;;;;;;;;5105767;28;20065;-75
2024/01/08 12:18:33;;;;;;;6.50;4.90;;;;;;;;;;5105764;28;20030;-76
2024/01/08 12:20:58;;;;;;;7.35;5.43;;;;;;;;;;5108153;27;20097;-77
2024/01/08 12:23:24;;;;;;;11.07;5.63;;;;;;;;;;5103021;28;20038;-77
2024/01/08 12:25:49;;;;;;;8.02;5.35;;;;;;;;;;5109209;28;20016;-76
2024/01/08 12:28:14;;;;;;;5.80;4.47;;;;;;;;;;5102775;28;20157;-77
2024/01/08 12:30:40;;;;;;;7.28;5.18;;;;;;;;;;5111450;28;20035;-78
2024/01/08 12:33:05;;;;;;;6.57;4.68;;;;;;;;;;5108215;28;20044;-77
2024/01/08 12:35:31;;;;;;;5.53;4.18;;;;;;;;;;5101974;28;20177;-77
2024/01/08 12:37:56;;;;;;;6.38;4.78;;;;;;;;;;5105587;28;20098;-77
2024/01/08 12:40:21;;;;;;;7.75;4.90;;;;;;;;;;5106943;28;20055;-77
2024/01/08 12:42:47;;;;;;;6.07;4.95;;;;;;;;;;5104741;28;20387;-77
2024/01/08 12:45:12;;;;;;;6.45;4.85;;;;;;;;;;5112141;28;20497;-77
2024/01/08 12:47:38;;;;;;;7.10;4.10;;;;;;;;;;5110014;28;20063;-78
2024/01/08 12:50:04;;;;;;;7.90;4.32;;;;;;;;;;5110283;27;20038;-78
2024/01/08 12:52:29;;;;;;;7.72;3.67;;;;;;;;;;5110935;27;20502;-78
2024/01/08 12:54:55;;;;;;;12.40;4.10;;;;;;;;;;5103044;28;20059;-78
2024/01/08 12:57:21;;;;;;;6.28;3.47;;;;;;;;;;5109132;28;20284;-78
2024/01/08 12:59:53;;;;;;;6.65;3.92;;;;;;;;;;5101577;28;20426;-78
2024/01/08 13:02:18;;;;;;;5.75;4.28;;;;;;;;;;5102165;28;20027;-79
2024/01/08 13:04:45;;;;;;;5.25;3.88;;;;;;;;;;5101374;28;20008;-78
2024/01/08 13:07:11;;;;;;;5.13;4.00;;;;;;;;;;5110374;28;20073;-78
2024/01/08 13:09:36;;;;;;;6.95;3.88;;;;;;;;;;5104491;28;20028;-78
2024/01/08 13:12:01;;;;;;;6.63;4.00;;;;;;;;;;5109281;28;20122;-78
2024/01/08 13:14:27;;;;;;;8.05;4.13;;;;;;;;;;5104431;28;20034;-78
2024/01/08 13:16:52;;;;;;;8.83;4.10;;;;;;;;;;5101802;28;20032;-78
2024/01/08 13:19:18;;;;;;;6.38;3.88;;;;;;;;;;5107092;28;20264;-78
2024/01/08 13:21:45;;;;;;;5.63;3.47;;;;;;;;;;5103297;28;20036;-78
2024/01/08 13:24:11;;;;;;;5.63;3.78;;;;;;;;;;5107350;28;20049;-78
2024/01/08 13:26:39;;;;;;;5.85;3.60;;;;;;;;;;5101385;28;20414;-78
2024/01/08 13:29:05;;;;;;;4.47;3.00;;;;;;;;;;5105636;28;20022;-78
2024/01/08 13:31:31;;;;;;;6.75;3.08;;;;;;;;;;5106173;28;20102;-79
2024/01/08 13:33:56;;;;;;;5.32;3.10;;;;;;;;;;5107602;28;20107;-79
2024/01/08 13:36:22;;;;;;;6.47;3.40;;;;;;;;;;5107719;28;20039;-78
2024/01/08 13:38:47;;;;;;;4.33;2.83;;;;;;;;;;5111568;28;20031;-81
2024/01/08 13:41:12;;;;;;;4.70;3.10;;;;;;;;;;5104102;28;20266;-78
2024/01/08 13:43:37;;;;;;;4.97;3.50;;;;;;;;;;5111231;28;20036;-78
2024/01/08 13:46:03;;;;;;;4.03;2.43;;;;;;;;;;5111229;28;20027;-78
2024/01/08 13:48:28;;;;;;;7.32;2.83;;;;;;;;;;5107007;28;20761;-77
2024/01/08 13:50:54;;;;;;;4.78;2.85;;;;;;;;;;5103889;28;20018;-78
2024/01/08 13:53:20;;;;;;;5.03;2.88;;;;;;;;;;5107479;28;20027;-78
2024/01/08 13:55:46;;;;;;;4.15;2.72;;;;;;;;;;5105410;28;20039;-78
2024/01/08 13:58:12;;;;;;;4.82;2.83;;;;;;;;;;5102160;28;20034;-78
2024/01/08 14:00:38;;;;;;;4.40;2.60;;;;;;;;;;5109811;28;20516;-78
2024/01/08 14:03:04;;;;;;;5.03;2.80;;;;;;;;;;5104187;28;20532;-78
2024/01/08 14:05:29;;;;;;;4.35;2.67;;;;;;;;;;5102912;28;20023;-78
2024/01/08 14:07:54;;;;;;;4.63;2.97;;;;;;;;;;5111536;28;20022;-78
2024/01/08 14:10:20;;;;;;;3.75;2.50;;;;;;;;;;5100648;28;20020;-78
2024/01/08 14:12:45;;;;;;;5.10;3.05;;;;;;;;;;5105738;28;20023;-78
2024/01/08 14:15:11;;;;;;;4.22;3.15;;;;;;;;;;5103058;28;20374;-77
2024/01/08 14:17:38;;;;;;;4.88;2.90;;;;;;;;;;5111232;28;20096;-78
2024/01/08 14:20:05;;;;;;;4.72;3.05;;;;;;;;;;5111608;28;20016;-77
2024/01/08 14:22:30;;;;;;;4.15;2.50;;;;;;;;;;5104581;28;20020;-77
2024/01/08 14:24:55;;;;;;;4.70;2.90;;;;;;;;;;5108969;28;20028;-77